createdAt,value
2018-09-18T00:02:10.883Z,10.43
2018-09-18T00:04:39.169Z,9.53
2018-09-18T00:07:07.467Z,10.30
2018-09-18T00:09:35.656Z,10.00
2018-09-18T00:12:03.901Z,9.23
2018-09-18T00:15:56.620Z,8.90
2018-09-18T00:18:24.598Z,8.50
2018-09-18T00:20:52.800Z,8.20
2018-09-18T00:23:20.787Z,8.53
2018-09-18T00:25:49.000Z,9.20
2018-09-18T00:28:17.203Z,9.57
2018-09-18T00:30:45.463Z,7.73
2018-09-18T00:33:13.748Z,9.10
2018-09-18T00:35:48.683Z,9.13
2018-09-18T00:38:16.955Z,8.40
2018-09-18T00:40:45.148Z,8.57
2018-09-18T00:43:13.355Z,8.90
2018-09-18T00:45:41.568Z,9.87
2018-09-18T00:48:09.917Z,9.80
2018-09-18T00:50:38.115Z,9.40
2018-09-18T00:53:06.308Z,8.17
2018-09-18T00:55:34.505Z,8.10
2018-09-18T00:58:02.755Z,8.60
2018-09-18T01:00:31.039Z,8.83
2018-09-18T01:02:59.298Z,8.17
2018-09-18T01:05:27.483Z,8.40
2018-09-18T01:07:55.663Z,8.80
2018-09-18T01:10:23.855Z,9.00
2018-09-18T01:12:52.132Z,7.90
2018-09-18T01:15:20.456Z,10.30
2018-09-18T01:17:48.907Z,9.70
2018-09-18T01:20:17.123Z,9.83
2018-09-18T01:22:45.415Z,10.10
2018-09-18T01:26:23.310Z,11.00
2018-09-18T01:28:51.579Z,10.90
2018-09-18T01:31:19.767Z,10.43
2018-09-18T01:33:48.056Z,10.23
2018-09-18T01:36:16.268Z,9.77
2018-09-18T01:38:44.479Z,9.90
2018-09-18T01:41:12.815Z,10.90
2018-09-18T01:43:42.083Z,9.93
2018-09-18T01:46:10.327Z,9.30
2018-09-18T01:48:38.616Z,8.67
2018-09-18T01:51:06.804Z,9.50
2018-09-18T01:53:34.996Z,9.80
2018-09-18T01:56:02.990Z,9.40
2018-09-18T01:58:31.200Z,8.77
2018-09-18T02:00:59.420Z,11.13
2018-09-18T02:03:27.604Z,11.40
2018-09-18T02:05:55.796Z,10.37
2018-09-18T02:09:26.850Z,10.53
2018-09-18T02:11:55.068Z,9.33
2018-09-18T02:14:23.323Z,9.63
2018-09-18T02:16:51.543Z,8.43
2018-09-18T02:19:19.795Z,8.80
2018-09-18T02:21:47.984Z,9.57
2018-09-18T02:24:15.949Z,8.40
2018-09-18T02:26:44.152Z,10.33
2018-09-18T02:29:12.334Z,9.53
2018-09-18T02:31:40.561Z,9.27
2018-09-18T02:34:08.846Z,8.40
2018-09-18T02:36:37.095Z,8.57
2018-09-18T02:39:08.671Z,8.77
2018-09-18T02:41:37.089Z,8.00
2018-09-18T02:44:05.398Z,7.97
2018-09-18T02:46:33.675Z,8.70
2018-09-18T02:49:01.911Z,8.90
2018-09-18T02:51:30.289Z,9.30
2018-09-18T02:53:58.522Z,8.03
2018-09-18T02:56:26.855Z,9.40
2018-09-18T02:58:55.066Z,9.70
2018-09-18T03:01:23.352Z,8.30
2018-09-18T03:03:51.716Z,8.97
2018-09-18T03:06:20.014Z,7.90
2018-09-18T03:08:48.231Z,7.67
2018-09-18T03:11:16.505Z,8.43
2018-09-18T03:13:44.619Z,7.40
2018-09-18T03:16:12.896Z,7.90
2018-09-18T03:18:41.156Z,8.83
2018-09-18T03:21:09.452Z,8.20
2018-09-18T03:23:37.632Z,8.10
2018-09-18T03:26:05.869Z,8.57
2018-09-18T03:28:34.167Z,9.60
2018-09-18T03:31:02.382Z,8.93
2018-09-18T03:33:30.615Z,10.40
2018-09-18T03:35:58.843Z,11.00
2018-09-18T03:38:27.079Z,11.80
2018-09-18T03:40:55.312Z,10.30
2018-09-18T03:43:23.531Z,10.90
2018-09-18T03:45:51.808Z,10.80
2018-09-18T03:48:20.071Z,9.53
2018-09-18T03:50:48.296Z,9.00
2018-09-18T03:53:16.484Z,9.43
2018-09-18T03:55:44.717Z,14.17
2018-09-18T03:58:13.008Z,12.90
2018-09-18T04:01:44.307Z,9.37
2018-09-18T04:04:12.496Z,11.10
2018-09-18T04:06:40.796Z,9.90
2018-09-18T04:09:10.512Z,9.20
2018-09-18T04:11:38.905Z,11.10
2018-09-18T04:14:07.211Z,8.97
2018-09-18T04:16:35.408Z,8.40
2018-09-18T04:19:03.624Z,8.10
2018-09-18T04:21:39.783Z,7.50
2018-09-18T04:24:08.036Z,7.20
2018-09-18T04:26:36.863Z,7.80
2018-09-18T04:29:05.483Z,7.07
2018-09-18T04:31:33.771Z,7.27
2018-09-18T04:34:01.963Z,7.60
2018-09-18T04:36:30.226Z,9.00
2018-09-18T04:38:58.497Z,7.83
2018-09-18T04:41:26.787Z,6.47
2018-09-18T04:43:55.078Z,7.37
2018-09-18T04:46:23.907Z,6.90
2018-09-18T04:48:52.251Z,6.87
2018-09-18T04:56:12.664Z,9.40
2018-09-18T04:59:11.963Z,10.17
2018-09-18T05:01:40.171Z,8.90
2018-09-18T05:04:08.431Z,8.83
2018-09-18T05:06:36.676Z,8.40
2018-09-18T05:09:07.443Z,9.53
2018-09-18T05:11:35.808Z,7.97
2018-09-18T05:14:04.161Z,9.60
2018-09-18T05:16:32.491Z,8.47
2018-09-18T05:19:00.717Z,9.00
2018-09-18T05:21:28.952Z,9.00
2018-09-18T05:23:57.215Z,8.63
2018-09-18T05:26:25.431Z,9.50
2018-09-18T05:28:54.527Z,9.77
2018-09-18T05:31:22.723Z,9.43
2018-09-18T05:33:50.936Z,9.23
2018-09-18T05:36:19.121Z,8.93
2018-09-18T05:38:47.323Z,9.80
2018-09-18T05:41:15.507Z,8.70
2018-09-18T05:43:43.775Z,8.33
2018-09-18T05:46:12.045Z,8.13
2018-09-18T05:48:40.244Z,7.83
2018-09-18T05:51:08.490Z,8.30
2018-09-18T05:53:36.696Z,9.20
2018-09-18T05:56:04.912Z,8.63
2018-09-18T05:58:33.634Z,8.00
2018-09-18T06:01:01.827Z,9.50
2018-09-18T06:03:30.028Z,8.87
2018-09-18T06:05:58.260Z,8.43
2018-09-18T06:08:26.222Z,8.73
2018-09-18T06:10:54.494Z,8.63
2018-09-18T06:13:22.479Z,12.17
2018-09-18T06:15:50.743Z,11.70
2018-09-18T06:18:19.028Z,16.40
2018-09-18T06:20:47.292Z,14.00
2018-09-18T06:23:15.579Z,11.30
2018-09-18T06:25:43.924Z,12.30
2018-09-18T06:28:12.191Z,12.13
2018-09-18T06:30:40.395Z,13.60
2018-09-18T06:33:08.919Z,12.00
2018-09-18T06:35:37.163Z,10.27
2018-09-18T06:38:05.451Z,8.87
2018-09-18T06:40:33.783Z,8.97
2018-09-18T06:43:02.094Z,9.80
2018-09-18T06:45:30.294Z,9.83
2018-09-18T06:47:58.537Z,8.60
2018-09-18T06:50:26.723Z,8.80
2018-09-18T06:52:54.931Z,9.10
2018-09-18T06:55:23.175Z,8.50
2018-09-18T06:57:51.393Z,8.50
2018-09-18T07:00:19.618Z,9.20
2018-09-18T07:09:51.409Z,8.60
2018-09-18T07:12:19.600Z,8.10
2018-09-18T07:14:47.862Z,8.63
2018-09-18T07:17:16.123Z,7.80
2018-09-18T07:19:44.324Z,7.50
2018-09-18T07:22:12.540Z,8.03
2018-09-18T07:24:40.766Z,7.83
2018-09-18T07:27:08.947Z,8.30
2018-09-18T07:29:37.158Z,7.93
2018-09-18T07:32:05.375Z,8.30
2018-09-18T07:34:33.652Z,7.43
2018-09-18T07:37:01.860Z,8.23
2018-09-18T07:39:30.127Z,7.57
2018-09-18T07:41:58.069Z,7.73
2018-09-18T07:44:26.260Z,7.87
2018-09-18T07:46:54.518Z,6.90
2018-09-18T07:49:22.851Z,6.90
2018-09-18T07:51:51.084Z,7.70
2018-09-18T07:54:19.344Z,7.33
2018-09-18T07:56:47.622Z,6.80
2018-09-18T07:59:15.907Z,7.80
2018-09-18T08:01:44.167Z,7.30
2018-09-18T08:04:12.454Z,6.80
2018-09-18T08:06:40.777Z,6.60
2018-09-18T08:09:09.988Z,6.70
2018-09-18T08:11:38.241Z,6.90
2018-09-18T08:14:06.466Z,6.83
2018-09-18T08:16:34.676Z,6.50
2018-09-18T08:19:03.021Z,7.47
2018-09-18T08:21:31.155Z,6.80
2018-09-18T08:23:59.337Z,6.63
2018-09-18T08:26:27.521Z,6.80
2018-09-18T08:28:55.724Z,6.60
2018-09-18T08:31:23.959Z,6.73
2018-09-18T08:33:52.142Z,7.00
2018-09-18T08:36:20.322Z,6.23
2018-09-18T08:38:48.529Z,6.27
2018-09-18T08:41:16.769Z,6.03
2018-09-18T08:43:44.966Z,7.00
2018-09-18T08:46:19.516Z,5.93
2018-09-18T08:48:53.305Z,6.43
2018-09-18T08:51:21.582Z,6.30
2018-09-18T08:53:49.767Z,6.20
2018-09-18T08:56:18.041Z,6.30
2018-09-18T08:58:46.323Z,5.90
2018-09-18T09:01:14.599Z,6.33
2018-09-18T09:03:42.869Z,6.30
2018-09-18T09:06:11.167Z,5.97
2018-09-18T09:08:39.427Z,5.60
2018-09-18T09:11:07.606Z,6.00
2018-09-18T09:13:36.140Z,6.10
2018-09-18T09:16:04.613Z,6.00
2018-09-18T09:18:33.258Z,5.23
2018-09-18T09:21:01.532Z,6.23
2018-09-18T09:23:30.156Z,5.93
2018-09-18T09:25:58.391Z,7.47
2018-09-18T09:28:26.683Z,5.83
2018-09-18T09:30:54.645Z,5.80
2018-09-18T09:33:22.864Z,5.83
2018-09-18T09:35:50.845Z,5.40
2018-09-18T09:38:19.039Z,5.37
2018-09-18T09:40:47.436Z,5.80
2018-09-18T09:43:15.494Z,5.87
2018-09-18T09:45:43.540Z,6.00
2018-09-18T09:48:11.825Z,6.97
2018-09-18T09:50:40.069Z,4.80
2018-09-18T09:53:08.236Z,5.23
2018-09-18T09:55:36.486Z,5.13
2018-09-18T09:58:04.701Z,5.67
2018-09-18T10:00:38.256Z,5.07
2018-09-18T10:03:06.497Z,5.33
2018-09-18T10:05:34.779Z,4.87
2018-09-18T10:08:03.056Z,5.03
2018-09-18T10:10:31.309Z,5.07
2018-09-18T10:12:59.488Z,4.70
2018-09-18T10:15:27.671Z,5.73
2018-09-18T10:17:56.129Z,5.80
2018-09-18T10:20:24.156Z,5.10
2018-09-18T10:22:52.383Z,5.43
2018-09-18T10:25:20.608Z,5.37
2018-09-18T10:27:48.862Z,4.33
2018-09-18T10:30:17.107Z,4.93
2018-09-18T10:32:45.401Z,5.93
2018-09-18T10:35:13.605Z,4.87
2018-09-18T10:37:41.790Z,5.43
2018-09-18T10:40:10.017Z,4.37
2018-09-18T10:42:38.231Z,5.57
2018-09-18T10:45:07.231Z,6.07
2018-09-18T10:47:35.484Z,4.87
2018-09-18T10:50:03.418Z,4.67
2018-09-18T10:52:31.665Z,5.10
2018-09-18T10:54:59.875Z,4.90
2018-09-18T10:57:27.850Z,5.60
2018-09-18T10:59:56.185Z,4.83
2018-09-18T11:02:24.380Z,4.37
2018-09-18T11:04:52.578Z,5.00
2018-09-18T11:07:20.836Z,4.73
2018-09-18T11:09:49.071Z,4.63
2018-09-18T11:12:17.337Z,4.70
2018-09-18T11:14:45.531Z,5.27
2018-09-18T11:17:13.768Z,4.80
2018-09-18T11:19:41.764Z,5.23
2018-09-18T11:22:10.006Z,5.00
2018-09-18T11:24:38.163Z,4.73
2018-09-18T11:27:06.368Z,4.30
2018-09-18T11:29:34.659Z,5.00
2018-09-18T11:32:02.975Z,5.20
2018-09-18T11:34:31.203Z,4.40
2018-09-18T11:36:59.416Z,4.87
2018-09-18T11:39:27.598Z,4.80
2018-09-18T11:41:55.894Z,4.77
2018-09-18T11:44:24.365Z,5.00
2018-09-18T11:46:52.644Z,5.10
2018-09-18T11:49:27.295Z,5.30
2018-09-18T11:51:55.502Z,5.20
2018-09-18T11:54:23.732Z,5.20
2018-09-18T11:56:52.061Z,5.10
2018-09-18T11:59:20.204Z,4.63
2018-09-18T12:01:48.431Z,4.90
2018-09-18T12:04:16.721Z,6.20
2018-09-18T12:06:44.928Z,4.57
2018-09-18T12:09:13.289Z,4.77
2018-09-18T12:11:41.914Z,4.50
2018-09-18T12:14:10.124Z,4.40
2018-09-18T12:16:38.439Z,4.47
2018-09-18T12:19:06.751Z,4.80
2018-09-18T12:21:35.020Z,5.23
2018-09-18T12:24:03.227Z,5.10
2018-09-18T12:26:31.454Z,5.10
2018-09-18T12:28:59.687Z,5.60
2018-09-18T12:31:27.991Z,4.60
2018-09-18T12:33:56.254Z,5.57
2018-09-18T12:36:24.298Z,5.23
2018-09-18T12:38:52.587Z,6.40
2018-09-18T12:41:20.895Z,5.10
2018-09-18T12:43:49.088Z,5.00
2018-09-18T12:46:17.279Z,4.63
2018-09-18T12:48:45.636Z,4.40
2018-09-18T12:51:13.727Z,5.37
2018-09-18T12:53:42.003Z,4.80
2018-09-18T12:56:10.325Z,4.90
2018-09-18T12:58:38.377Z,4.97
2018-09-18T13:01:06.660Z,5.30
2018-09-18T13:03:35.968Z,5.60
2018-09-18T13:06:04.303Z,5.33
2018-09-18T13:08:32.440Z,4.80
2018-09-18T13:11:00.643Z,5.57
2018-09-18T13:13:28.860Z,5.60
2018-09-18T13:15:57.152Z,4.97
2018-09-18T13:18:25.121Z,5.70
2018-09-18T13:20:53.331Z,5.10
2018-09-18T13:23:21.507Z,5.73
2018-09-18T13:25:49.689Z,5.50
2018-09-18T13:28:17.863Z,5.40
2018-09-18T13:31:49.326Z,5.70
2018-09-18T13:34:17.631Z,5.43
2018-09-18T13:36:45.933Z,5.20
2018-09-18T13:39:14.234Z,5.67
2018-09-18T13:41:42.436Z,4.77
2018-09-18T13:44:10.761Z,5.40
2018-09-18T13:46:39.017Z,5.50
2018-09-18T13:49:07.231Z,6.00
2018-09-18T13:51:35.515Z,5.40
2018-09-18T13:54:03.757Z,5.47
2018-09-18T13:56:31.838Z,6.23
2018-09-18T13:59:00.040Z,5.00
2018-09-18T14:01:28.445Z,5.50
2018-09-18T14:03:56.632Z,4.90
2018-09-18T14:06:24.908Z,5.40
2018-09-18T14:08:53.110Z,5.80
2018-09-18T14:11:21.314Z,5.60
2018-09-18T14:13:49.515Z,5.10
2018-09-18T14:16:17.835Z,5.37
2018-09-18T14:18:46.090Z,4.63
2018-09-18T14:21:15.379Z,5.57
2018-09-18T14:23:50.323Z,5.67
2018-09-18T14:26:18.652Z,5.60
2018-09-18T14:28:46.881Z,4.90
2018-09-18T14:31:15.131Z,5.47
2018-09-18T14:33:43.324Z,5.40
2018-09-18T14:36:11.521Z,5.70
2018-09-18T14:38:39.748Z,5.47
2018-09-18T14:41:08.027Z,4.57
2018-09-18T14:43:35.980Z,5.03
2018-09-18T14:46:03.928Z,5.10
2018-09-18T14:48:32.186Z,5.90
2018-09-18T14:51:00.452Z,5.43
2018-09-18T14:53:29.417Z,5.47
2018-09-18T14:55:57.612Z,5.93
2018-09-18T14:58:25.807Z,5.80
2018-09-18T15:00:54.039Z,5.93
2018-09-18T15:03:22.260Z,5.53
2018-09-18T15:05:51.564Z,5.73
2018-09-18T15:08:19.555Z,5.87
2018-09-18T15:10:47.746Z,5.07
2018-09-18T15:13:16.035Z,5.53
2018-09-18T15:15:44.355Z,6.47
2018-09-18T15:18:12.520Z,10.10
2018-09-18T15:20:40.784Z,10.23
2018-09-18T15:23:08.984Z,8.90
2018-09-18T15:25:37.180Z,9.03
2018-09-18T15:28:05.377Z,9.63
2018-09-18T15:30:33.332Z,9.70
2018-09-18T15:33:01.623Z,8.30
2018-09-18T15:35:29.919Z,9.37
2018-09-18T15:37:58.186Z,9.17
2018-09-18T15:40:26.447Z,9.10
2018-09-18T15:42:54.776Z,9.60
2018-09-18T15:45:23.025Z,9.70
2018-09-18T15:51:22.811Z,8.40
2018-09-18T15:53:51.011Z,8.40
2018-09-18T15:56:19.242Z,9.10
2018-09-18T15:58:47.602Z,10.13
2018-09-18T16:01:15.911Z,11.13
2018-09-18T16:03:44.114Z,11.87
2018-09-18T16:06:12.242Z,9.47
2018-09-18T16:08:40.465Z,10.07
2018-09-18T16:11:08.815Z,8.13
2018-09-18T16:13:37.019Z,6.00
2018-09-18T16:16:05.243Z,5.30
2018-09-18T16:18:33.467Z,4.27
2018-09-18T16:21:01.688Z,4.23
2018-09-18T16:23:29.901Z,4.63
2018-09-18T16:25:58.221Z,5.17
2018-09-18T16:28:26.489Z,4.47
2018-09-18T16:30:54.773Z,5.33
2018-09-18T16:33:23.024Z,5.17
2018-09-18T16:35:51.292Z,5.43
2018-09-18T16:38:19.520Z,5.87
2018-09-18T16:40:47.788Z,4.80
2018-09-18T16:43:15.995Z,5.10
2018-09-18T16:45:44.299Z,5.00
2018-09-18T16:48:12.501Z,4.80
2018-09-18T16:50:40.739Z,4.10
2018-09-18T16:53:08.933Z,4.53
2018-09-18T16:55:37.002Z,5.20
2018-09-18T16:58:05.071Z,4.40
2018-09-18T17:00:33.295Z,4.57
2018-09-18T17:03:01.459Z,3.67
2018-09-18T17:05:29.652Z,4.40
2018-09-18T17:07:57.836Z,3.50
2018-09-18T17:10:26.067Z,3.63
2018-09-18T17:12:54.393Z,4.57
2018-09-18T17:15:22.627Z,4.30
2018-09-18T17:17:57.472Z,4.40
2018-09-18T17:20:25.691Z,3.90
2018-09-18T17:22:53.873Z,3.87
2018-09-18T17:25:22.071Z,3.50
2018-09-18T17:27:50.335Z,4.50
2018-09-18T17:30:18.628Z,2.97
2018-09-18T17:32:46.918Z,3.63
2018-09-18T17:35:15.134Z,4.13
2018-09-18T17:37:43.387Z,3.60
2018-09-18T17:40:11.680Z,2.93
2018-09-18T17:42:39.946Z,3.20
2018-09-18T17:45:08.469Z,3.93
2018-09-18T17:47:37.065Z,3.70
2018-09-18T17:50:05.357Z,3.30
2018-09-18T17:52:33.528Z,3.80
2018-09-18T17:55:01.751Z,4.23
2018-09-18T17:57:30.048Z,3.10
2018-09-18T17:59:58.231Z,3.60
2018-09-18T18:02:26.465Z,3.50
2018-09-18T18:04:54.735Z,3.10
2018-09-18T18:07:22.952Z,3.07
2018-09-18T18:09:51.188Z,2.30
2018-09-18T18:12:19.439Z,2.87
2018-09-18T18:14:47.635Z,2.40
2018-09-18T18:17:15.940Z,2.33
2018-09-18T18:19:44.266Z,2.43
2018-09-18T18:22:12.465Z,2.37
2018-09-18T18:24:40.754Z,2.10
2018-09-18T18:27:09.018Z,2.90
2018-09-18T18:29:37.464Z,2.80
2018-09-18T18:32:05.679Z,2.20
2018-09-18T18:34:33.978Z,2.20
2018-09-18T18:37:02.204Z,2.90
2018-09-18T18:39:30.426Z,2.37
2018-09-18T18:41:58.662Z,1.90
2018-09-18T18:44:26.992Z,2.10
2018-09-18T18:46:55.262Z,2.10
2018-09-18T18:49:23.515Z,2.50
2018-09-18T18:51:51.715Z,2.30
2018-09-18T18:54:19.944Z,2.13
2018-09-18T18:56:48.146Z,2.23
2018-09-18T18:59:16.407Z,2.80
2018-09-18T19:01:44.584Z,2.30
2018-09-18T19:04:12.562Z,2.80
2018-09-18T19:06:40.798Z,2.73
2018-09-18T19:09:09.070Z,2.73
2018-09-18T19:11:37.316Z,2.57
2018-09-18T19:14:05.550Z,2.80
2018-09-18T19:16:33.740Z,2.70
2018-09-18T19:19:02.003Z,2.17
2018-09-18T19:21:30.455Z,1.97
2018-09-18T19:23:58.642Z,2.13
2018-09-18T19:26:26.847Z,2.17
2018-09-18T19:28:55.027Z,2.00
2018-09-18T19:31:23.282Z,2.47
2018-09-18T19:33:51.552Z,2.40
2018-09-18T19:36:19.831Z,2.43
2018-09-18T19:38:48.187Z,2.87
2018-09-18T19:41:16.420Z,2.47
2018-09-18T19:43:44.675Z,2.30
2018-09-18T19:46:12.980Z,1.63
2018-09-18T19:48:41.647Z,2.40
2018-09-18T19:51:10.004Z,2.10
2018-09-18T19:53:38.217Z,2.80
2018-09-18T19:56:06.507Z,2.50
2018-09-18T19:58:34.693Z,2.40
2018-09-18T20:01:02.943Z,2.37
2018-09-18T20:03:31.155Z,2.10
2018-09-18T20:05:59.455Z,2.63
2018-09-18T20:08:27.721Z,2.43
2018-09-18T20:10:55.911Z,2.90
2018-09-18T20:13:24.211Z,2.50
2018-09-18T20:15:52.524Z,2.60
2018-09-18T20:18:20.790Z,2.50
2018-09-18T20:20:49.070Z,3.20
2018-09-18T20:23:17.351Z,3.03
2018-09-18T20:25:45.558Z,2.70
2018-09-18T20:28:13.840Z,2.80
2018-09-18T20:30:42.156Z,2.37
2018-09-18T20:33:10.451Z,2.70
2018-09-18T20:35:38.761Z,2.93
2018-09-18T20:38:06.877Z,2.67
2018-09-18T20:40:35.183Z,3.27
2018-09-18T20:43:03.382Z,3.00
2018-09-18T20:45:31.614Z,3.10
2018-09-18T20:47:59.794Z,2.90
2018-09-18T20:50:28.054Z,2.80
2018-09-18T20:52:56.522Z,2.53
2018-09-18T20:55:24.857Z,2.97
2018-09-18T20:57:53.128Z,2.10
2018-09-18T21:00:21.354Z,1.73
2018-09-18T21:02:49.592Z,2.60
2018-09-18T21:05:18.602Z,1.83
2018-09-18T21:07:46.573Z,2.90
2018-09-18T21:10:14.856Z,2.70
2018-09-18T21:12:43.152Z,2.30
2018-09-18T21:15:11.364Z,2.30
2018-09-18T21:17:39.546Z,2.40
2018-09-18T21:20:14.501Z,2.83
2018-09-18T21:22:42.703Z,2.20
2018-09-18T21:25:15.126Z,2.73
2018-09-18T21:27:44.709Z,2.33
2018-09-18T21:30:13.507Z,2.70
2018-09-18T21:32:41.795Z,2.40
2018-09-18T21:35:09.986Z,2.60
2018-09-18T21:37:38.321Z,2.63
2018-09-18T21:40:06.547Z,2.47
2018-09-18T21:42:34.862Z,2.23
2018-09-18T21:45:04.121Z,3.10
2018-09-18T21:47:32.395Z,2.40
2018-09-18T21:50:00.726Z,2.83
2018-09-18T21:52:28.895Z,2.60
2018-09-18T21:54:57.120Z,2.57
2018-09-18T21:57:25.412Z,2.27
2018-09-18T21:59:53.595Z,2.60
2018-09-18T22:02:21.844Z,2.70
2018-09-18T22:04:50.085Z,2.00
2018-09-18T22:07:18.363Z,2.23
2018-09-18T22:09:46.614Z,2.77
2018-09-18T22:12:14.565Z,2.80
2018-09-18T22:14:42.765Z,2.63
2018-09-18T22:17:10.984Z,2.70
2018-09-18T22:19:39.287Z,2.53
2018-09-18T22:22:07.550Z,2.60
2018-09-18T22:24:35.825Z,3.30
2018-09-18T22:27:04.012Z,3.00
2018-09-18T22:29:32.303Z,2.67
2018-09-18T22:32:00.515Z,2.70
2018-09-18T22:34:28.815Z,3.03
2018-09-18T22:36:57.074Z,2.87
2018-09-18T22:39:25.370Z,3.73
2018-09-18T22:41:53.625Z,2.97
2018-09-18T22:44:21.899Z,3.20
2018-09-18T22:46:50.166Z,3.47
2018-09-18T22:49:18.400Z,2.87
2018-09-18T22:51:46.596Z,2.90
2018-09-18T22:54:14.791Z,2.80
2018-09-18T22:56:43.082Z,2.80
2018-09-18T22:59:11.366Z,3.70
2018-09-18T23:01:39.658Z,2.80
2018-09-18T23:04:07.941Z,2.77
2018-09-18T23:06:36.130Z,2.90
2018-09-18T23:09:06.567Z,3.53
2018-09-18T23:11:34.602Z,3.57
2018-09-18T23:14:02.929Z,2.97
2018-09-18T23:16:30.876Z,3.27
2018-09-18T23:18:59.108Z,3.00
2018-09-18T23:21:27.308Z,2.83
2018-09-18T23:23:55.532Z,2.70
2018-09-18T23:26:23.715Z,3.03
2018-09-18T23:28:51.926Z,2.90
2018-09-18T23:31:20.229Z,2.93
2018-09-18T23:33:48.464Z,2.60
2018-09-18T23:36:16.727Z,3.00
2018-09-18T23:38:45.020Z,2.77
2018-09-18T23:41:13.214Z,2.77
2018-09-18T23:43:41.663Z,2.63
2018-09-18T23:46:09.954Z,2.60
2018-09-18T23:48:38.198Z,3.17
2018-09-18T23:51:06.473Z,2.33
2018-09-18T23:53:34.755Z,2.50
2018-09-18T23:56:02.972Z,2.50
2018-09-18T23:58:31.311Z,2.37
